Time;durP1;ratioP1;P1;durP2;ratioP2;P2;SDS_P1;SDS_P2;PMS_P1;PMS_P2;Temp;Humidity;BMP_temperature;BMP_pressure;BME280_temperature;BME280_humidity;BME280_pressure;Samples;Min_cycle;Max_cycle;Signal;HPM_P1;HPM_P2
2021/01/24 00:01:21;;;;;;;;;;;2.30;99.90;;;;;;20922205;28;20190;-78
2021/01/24 00:11:23;;;;;;;3.13;0.90;;;2.30;99.90;;;;;;20966980;28;20008;-78
2021/01/24 00:21:23;;;;;;;2.05;0.88;;;2.20;99.90;;;;;;20959704;28;20328;-78
2021/01/24 00:31:24;;;;;;;;;;;2.30;99.90;;;;;;20998552;28;20036;-80
2021/01/24 00:41:25;;;;;;;1.20;0.73;;;2.20;99.90;;;;;;21000124;28;19912;-79
2021/01/24 00:51:26;;;;;;;1.27;0.80;;;2.20;99.90;;;;;;21017508;28;20059;-79
2021/01/24 01:01:29;;;;;;;2.22;0.90;;;2.40;99.90;;;;;;20996989;28;20032;-80
2021/01/24 01:11:29;;;;;;;0.98;0.80;;;2.40;99.90;;;;;;20952978;28;20075;-79
2021/01/24 01:21:30;;;;;;;;;;;2.20;99.90;;;;;;20922062;22;20040;-76
2021/01/24 01:31:55;;;;;;;1.33;1.02;;;2.10;99.90;;;;;;21016485;28;19924;-78
2021/01/24 01:41:56;;;;;;;1.10;0.80;;;2.10;99.90;;;;;;21003406;28;20032;-76
2021/01/24 01:51:57;;;;;;;;;;;2.00;99.90;;;;;;20977385;28;20032;-77
2021/01/24 02:02:07;;;;;;;1.65;1.20;;;1.90;99.90;;;;;;20978715;28;19913;-76
2021/01/24 02:13:00;;;;;;;2.00;1.30;;;1.70;99.90;;;;;;21024458;28;20131;-77
2021/01/24 02:23:01;;;;;;;0.95;0.93;;;1.70;99.90;;;;;;21051703;28;20040;-77
2021/01/24 02:33:08;;;;;;;1.15;1.00;;;1.50;99.90;;;;;;21054831;28;20111;-77
2021/01/24 02:43:10;;;;;;;0.88;0.80;;;1.60;99.90;;;;;;21061659;28;20058;-77
2021/01/24 02:53:13;;;;;;;1.67;1.10;;;1.60;99.90;;;;;;21071578;28;20023;-77
2021/01/24 03:03:13;;;;;;;0.80;0.80;;;1.70;99.90;;;;;;21055892;28;20154;-77
2021/01/24 03:13:28;;;;;;;;;;;1.60;99.90;;;;;;21073790;28;20052;-77
2021/01/24 03:23:29;;;;;;;0.63;0.60;;;1.50;99.90;;;;;;21073178;28;19912;-77
2021/01/24 03:33:31;;;;;;;1.67;1.20;;;1.40;99.90;;;;;;21088041;28;20138;-77
2021/01/24 03:43:32;;;;;;;1.55;1.00;;;1.30;99.90;;;;;;21071386;28;20028;-77
2021/01/24 03:53:32;;;;;;;1.35;0.90;;;1.20;99.90;;;;;;21090135;28;20063;-77
2021/01/24 04:03:33;;;;;;;;;;;1.20;99.90;;;;;;21097089;28;20063;-77
2021/01/24 04:13:34;;;;;;;1.23;1.03;;;1.20;99.90;;;;;;21075963;28;19911;-77
2021/01/24 04:23:35;;;;;;;3.55;0.82;;;1.10;99.90;;;;;;21087557;28;20285;-77
2021/01/24 04:33:35;;;;;;;1.50;1.30;;;0.80;99.90;;;;;;21086043;28;20227;-77
2021/01/24 04:43:36;;;;;;;2.38;1.58;;;0.80;99.90;;;;;;21089336;28;20028;-77
2021/01/24 04:53:39;;;;;;;3.95;1.70;;;0.80;99.90;;;;;;21088739;28;20020;-77
2021/01/24 05:03:40;;;;;;;2.25;1.40;;;0.60;99.90;;;;;;21070117;28;20040;-77
2021/01/24 05:13:40;;;;;;;2.55;1.50;;;0.60;99.90;;;;;;21091527;28;20112;-77
2021/01/24 05:23:43;;;;;;;3.15;1.48;;;0.50;99.90;;;;;;21073225;28;20028;-78
2021/01/24 05:33:46;;;;;;;3.92;1.40;;;0.50;99.90;;;;;;21091209;28;20026;-78
2021/01/24 05:43:47;;;;;;;2.15;1.27;;;0.40;99.90;;;;;;21089863;28;20450;-77
2021/01/24 05:53:49;;;;;;;2.00;1.30;;;0.50;99.90;;;;;;21089661;28;20098;-77
2021/01/24 06:03:52;;;;;;;1.85;1.30;;;0.50;99.90;;;;;;21054494;28;20036;-77
2021/01/24 06:13:56;;;;;;;2.95;1.80;;;0.60;99.90;;;;;;21088670;28;20040;-78
2021/01/24 06:24:05;;;;;;;2.33;1.30;;;0.60;99.90;;;;;;21070818;28;20115;-77
2021/01/24 06:34:06;;;;;;;2.92;1.45;;;0.60;99.90;;;;;;21070795;28;20028;-78
2021/01/24 06:44:52;;;;;;;3.08;1.17;;;0.50;99.90;;;;;;21088012;28;20035;-78
2021/01/24 06:54:53;;;;;;;3.15;1.50;;;0.50;99.90;;;;;;21092083;28;20165;-78
2021/01/24 07:05:06;;;;;;;2.85;1.23;;;0.40;99.90;;;;;;21101406;28;20036;-77
2021/01/24 07:15:10;;;;;;;2.85;1.17;;;0.30;99.90;;;;;;21113791;28;20039;-78
2021/01/24 07:25:11;;;;;;;3.38;1.20;;;0.20;99.90;;;;;;21122139;28;20084;-77
2021/01/24 07:35:11;;;;;;;1.92;1.13;;;0.30;99.90;;;;;;21108494;28;20436;-77
2021/01/24 07:45:12;;;;;;;3.78;1.35;;;0.70;99.90;;;;;;21104981;28;20032;-77
2021/01/24 07:55:14;;;;;;;;;;;1.80;99.90;;;;;;21095959;28;20032;-78
2021/01/24 08:05:15;;;;;;;3.00;1.57;;;1.50;99.90;;;;;;21093381;28;19912;-78
2021/01/24 08:15:16;;;;;;;3.30;1.38;;;2.10;99.90;;;;;;21032430;28;20029;-77
2021/01/24 08:25:17;;;;;;;;;;;2.50;99.90;;;;;;21086980;28;20036;-77
2021/01/24 08:35:17;;;;;;;5.40;1.02;;;2.60;99.90;;;;;;21061197;28;19919;-77
2021/01/24 08:45:27;;;;;;;5.10;1.58;;;3.20;99.90;;;;;;21083098;28;20032;-78
2021/01/24 08:55:29;;;;;;;1.92;1.20;;;4.30;99.90;;;;;;21061946;28;20498;-77
2021/01/24 09:05:31;;;;;;;2.05;1.20;;;5.50;99.90;;;;;;21079388;28;20032;-78
2021/01/24 09:15:33;;;;;;;3.45;1.70;;;5.50;99.90;;;;;;21077228;28;20097;-77
2021/01/24 09:25:34;;;;;;;3.35;1.38;;;4.40;99.90;;;;;;21075818;28;20132;-77
2021/01/24 09:35:34;;;;;;;4.07;1.50;;;3.80;99.90;;;;;;20999463;28;20056;-77
2021/01/24 09:45:35;;;;;;;3.10;1.20;;;2.50;99.90;;;;;;20990367;28;20028;-77
2021/01/24 09:55:38;;;;;;;2.80;1.43;;;2.40;99.90;;;;;;20988811;28;20032;-77
2021/01/24 10:05:41;;;;;;;3.22;1.38;;;2.70;99.90;;;;;;20987595;28;20797;-77
2021/01/24 10:15:42;;;;;;;3.95;1.42;;;2.60;99.90;;;;;;21061966;28;20081;-77
2021/01/24 10:25:42;;;;;;;1.83;1.17;;;2.60;99.90;;;;;;21066919;28;20510;-78
2021/01/24 10:35:44;;;;;;;2.50;1.30;;;2.50;99.90;;;;;;21030313;28;20501;-78
2021/01/24 10:45:45;;;;;;;2.80;1.40;;;2.70;99.90;;;;;;21049901;28;20432;-77
2021/01/24 10:55:46;;;;;;;5.38;1.40;;;2.50;99.90;;;;;;21052240;28;20513;-77
2021/01/24 11:05:47;;;;;;;1.88;1.20;;;2.40;99.90;;;;;;21052427;28;20067;-77
2021/01/24 11:15:48;;;;;;;3.53;1.45;;;2.50;99.90;;;;;;21061452;28;20047;-77
2021/01/24 11:25:48;;;;;;;2.58;1.15;;;2.50;99.90;;;;;;21035618;28;20039;-78
2021/01/24 11:35:50;;;;;;;1.83;1.27;;;3.90;99.90;;;;;;21051371;28;20044;-78
2021/01/24 11:45:51;;;;;;;1.50;1.17;;;4.20;99.90;;;;;;21033368;28;20032;-78
2021/01/24 11:55:57;;;;;;;3.40;1.27;;;4.30;99.90;;;;;;21043068;28;20056;-77
2021/01/24 12:05:59;;;;;;;3.17;1.15;;;5.30;99.90;;;;;;21060323;28;20052;-78
2021/01/24 12:16:01;;;;;;;1.40;0.98;;;7.00;99.90;;;;;;21054502;28;20055;-77
2021/01/24 12:26:02;;;;;;;5.00;1.20;;;7.00;99.90;;;;;;20986552;28;20032;-78
2021/01/24 12:36:03;;;;;;;2.47;1.10;;;7.30;99.90;;;;;;20970233;28;20040;-78
2021/01/24 12:46:04;;;;;;;6.13;1.67;;;6.20;99.90;;;;;;20967520;28;20033;-77
2021/01/24 12:56:05;;;;;;;5.03;1.10;;;5.30;99.90;;;;;;20983510;28;20350;-79
2021/01/24 13:06:06;;;;;;;1.93;1.17;;;5.90;99.90;;;;;;21045555;28;20548;-78
2021/01/24 13:16:07;;;;;;;3.63;0.93;;;6.20;99.90;;;;;;21068006;28;20286;-78
2021/01/24 13:26:13;;;;;;;0.80;0.80;;;6.20;99.90;;;;;;21047930;28;20039;-78
2021/01/24 13:36:15;;;;;;;1.70;1.23;;;5.40;99.90;;;;;;21048302;28;20069;-77
2021/01/24 13:46:16;;;;;;;4.40;1.05;;;5.00;99.90;;;;;;21019165;28;20040;-77
2021/01/24 13:56:17;;;;;;;3.87;1.40;;;5.30;99.90;;;;;;21068887;28;20467;-78
2021/01/24 14:06:17;;;;;;;3.90;1.30;;;5.50;99.90;;;;;;21069044;28;20130;-79
2021/01/24 14:16:18;;;;;;;3.03;0.93;;;6.90;99.90;;;;;;21069173;28;20647;-78
2021/01/24 14:26:19;;;;;;;1.77;1.47;;;8.10;99.90;;;;;;21071047;28;20611;-78
2021/01/24 14:36:21;;;;;;;1.93;1.20;;;5.50;99.90;;;;;;20994485;28;20448;-78
2021/01/24 14:46:22;;;;;;;1.67;1.20;;;6.00;99.90;;;;;;20960723;28;20040;-79
2021/01/24 14:56:23;;;;;;;2.90;1.50;;;6.20;99.90;;;;;;21000303;28;20035;-78
2021/01/24 15:06:24;;;;;;;1.73;1.10;;;6.30;99.90;;;;;;21024736;28;20036;-78
2021/01/24 15:16:24;;;;;;;3.47;1.80;;;6.90;99.90;;;;;;21066839;28;20032;-78
2021/01/24 15:26:25;;;;;;;3.30;1.43;;;6.90;99.90;;;;;;21080152;28;20035;-78
2021/01/24 15:36:28;;;;;;;1.70;1.10;;;6.80;99.90;;;;;;21079323;28;20028;-78
2021/01/24 15:46:31;;;;;;;5.85;1.30;;;5.30;99.90;;;;;;21089053;28;20032;-77
2021/01/24 15:56:32;;;;;;;8.40;1.50;;;4.50;99.90;;;;;;20903387;22;20396;-77
2021/01/24 16:06:35;;;;;;;4.03;1.87;;;3.50;99.90;;;;;;20911076;28;20056;-77
2021/01/24 16:16:36;;;;;;;3.25;1.90;;;2.60;99.90;;;;;;20851610;28;20032;-77
2021/01/24 16:26:37;;;;;;;4.97;2.20;;;2.30;99.90;;;;;;20878837;28;20040;-79
2021/01/24 16:36:37;;;;;;;8.07;1.87;;;1.60;99.90;;;;;;20908762;28;20373;-78
2021/01/24 16:46:38;;;;;;;3.17;1.73;;;1.40;99.90;;;;;;20988718;28;20033;-78
2021/01/24 16:56:39;;;;;;;7.43;3.00;;;1.10;99.90;;;;;;20935195;28;20241;-78
2021/01/24 17:06:40;;;;;;;8.32;3.40;;;0.90;99.90;;;;;;20994810;28;20024;-79
2021/01/24 17:16:41;;;;;;;9.70;4.15;;;0.90;99.90;;;;;;20945645;28;20494;-76
2021/01/24 17:26:42;;;;;;;15.40;5.47;;;0.90;99.90;;;;;;20948504;28;20021;-78
2021/01/24 17:36:43;;;;;;;5.75;2.88;;;0.60;99.90;;;;;;20975024;28;20033;-80
2021/01/24 17:46:44;;;;;;;12.43;4.40;;;-0.20;99.90;;;;;;20932269;28;20083;-79
2021/01/24 17:56:45;;;;;;;3.58;2.20;;;0.00;99.90;;;;;;20933014;28;20486;-78
2021/01/24 18:06:46;;;;;;;14.93;6.03;;;-0.30;99.90;;;;;;20909750;28;20479;-78
2021/01/24 18:16:47;;;;;;;14.70;7.53;;;-0.50;99.90;;;;;;20910084;28;20029;-77
2021/01/24 18:26:48;;;;;;;14.15;6.38;;;-0.20;99.90;;;;;;20890961;28;20045;-76
2021/01/24 18:36:49;;;;;;;12.18;5.93;;;0.00;99.90;;;;;;20936249;28;20036;-78
2021/01/24 18:46:50;;;;;;;11.25;5.18;;;-0.30;99.90;;;;;;20897335;28;20033;-77
2021/01/24 18:56:51;;;;;;;11.05;4.72;;;-0.50;99.90;;;;;;20886006;28;20048;-79
2021/01/24 19:06:58;;;;;;;13.38;6.78;;;-0.40;99.90;;;;;;20874135;28;20474;-78
2021/01/24 19:17:02;;;;;;;31.35;8.32;;;-0.10;99.90;;;;;;20888940;28;20481;-78
2021/01/24 19:27:03;;;;;;;11.20;3.83;;;-0.50;99.90;;;;;;20919410;28;20040;-78
2021/01/24 19:37:16;;;;;;;3.85;2.10;;;-0.70;99.90;;;;;;20887920;28;20112;-77
2021/01/24 19:47:17;;;;;;;4.25;2.28;;;-0.80;99.90;;;;;;20892363;28;20032;-77
2021/01/24 19:57:18;;;;;;;4.78;2.15;;;-0.70;99.90;;;;;;20864565;28;20033;-78
2021/01/24 20:07:19;;;;;;;10.38;4.95;;;-0.80;99.90;;;;;;20898231;28;20566;-77
2021/01/24 20:17:20;;;;;;;10.10;4.60;;;-0.60;99.90;;;;;;20833942;28;20623;-78
2021/01/24 20:27:23;;;;;;;6.25;2.80;;;-0.60;99.90;;;;;;20817984;28;20033;-79
2021/01/24 20:37:24;;;;;;;3.78;2.33;;;-0.80;99.90;;;;;;20877975;28;20041;-80
2021/01/24 20:47:25;;;;;;;8.32;3.10;;;-0.50;99.90;;;;;;20821133;28;20399;-78
2021/01/24 20:57:36;;;;;;;8.05;4.18;;;-0.30;99.90;;;;;;20802775;28;20041;-80
2021/01/24 21:07:39;;;;;;;7.10;3.70;;;-0.30;99.90;;;;;;20786569;28;20060;-79
2021/01/24 21:17:40;;;;;;;7.78;4.63;;;-0.30;99.90;;;;;;20817810;28;20025;-79
2021/01/24 21:27:42;;;;;;;8.88;4.05;;;-0.20;99.90;;;;;;20784560;28;20099;-79
2021/01/24 21:37:43;;;;;;;9.10;3.15;;;-0.20;99.90;;;;;;20813594;28;20139;-78
2021/01/24 21:47:45;;;;;;;8.48;3.47;;;-0.20;99.90;;;;;;20819317;28;20032;-78
2021/01/24 21:57:46;;;;;;;22.23;10.10;;;-0.20;99.90;;;;;;20846007;28;20571;-79
2021/01/24 22:07:47;;;;;;;19.38;6.30;;;-0.10;99.90;;;;;;20834986;28;20044;-78
2021/01/24 22:17:48;;;;;;;8.48;4.95;;;-0.20;99.90;;;;;;20879434;28;20032;-81
2021/01/24 22:27:49;;;;;;;13.32;5.30;;;-0.40;99.90;;;;;;20854594;28;20435;-80
2021/01/24 22:37:50;;;;;;;13.45;5.53;;;-0.40;99.90;;;;;;20821247;28;20041;-79
2021/01/24 22:47:57;;;;;;;12.02;6.70;;;-0.60;99.90;;;;;;20837303;28;20048;-79
2021/01/24 22:57:58;;;;;;;9.55;5.63;;;-0.60;99.90;;;;;;20819207;28;20072;-79
2021/01/24 23:07:59;;;;;;;11.63;4.20;;;-0.60;99.90;;;;;;20866348;28;20064;-81
2021/01/24 23:18:00;;;;;;;6.75;4.53;;;-0.40;99.90;;;;;;20885370;28;20084;-81
2021/01/24 23:28:01;;;;;;;4.43;3.25;;;-0.50;99.90;;;;;;20853462;28;20368;-80
2021/01/24 23:38:04;;;;;;;5.05;3.40;;;-0.50;99.90;;;;;;20856045;28;20037;-81
2021/01/24 23:48:06;;;;;;;7.78;3.83;;;-0.50;99.90;;;;;;20869260;28;20037;-80
2021/01/24 23:58:07;;;;;;;14.02;5.45;;;-0.60;99.90;;;;;;20887432;28;20025;-81
